createdAt,value
2023-05-18T00:01:13.861Z,3.60
2023-05-18T00:03:41.655Z,3.80
2023-05-18T00:06:09.402Z,3.40
2023-05-18T00:08:36.649Z,3.70
2023-05-18T00:11:03.759Z,3.60
2023-05-18T00:13:31.054Z,3.40
2023-05-18T00:15:57.889Z,3.50
2023-05-18T00:18:26.079Z,3.00
2023-05-18T00:20:58.200Z,3.90
2023-05-18T00:23:32.449Z,3.80
2023-05-18T00:25:59.699Z,3.70
2023-05-18T00:28:26.340Z,4.10
2023-05-18T00:30:53.219Z,3.80
2023-05-18T00:33:21.300Z,3.80
2023-05-18T00:35:47.916Z,3.70
2023-05-18T00:38:14.924Z,3.50
2023-05-18T00:40:42.769Z,3.80
2023-05-18T00:43:11.335Z,3.80
2023-05-18T00:45:38.009Z,3.50
2023-05-18T00:48:05.257Z,3.90
2023-05-18T00:50:33.287Z,4.10
2023-05-18T00:52:59.930Z,3.70
2023-05-18T00:55:27.831Z,3.70
2023-05-18T00:57:55.895Z,3.70
2023-05-18T01:00:23.264Z,3.90
2023-05-18T01:02:50.589Z,3.60
2023-05-18T01:05:19.614Z,3.70
2023-05-18T01:07:47.190Z,3.90
2023-05-18T01:10:15.965Z,4.40
2023-05-18T01:12:49.394Z,4.10
2023-05-18T01:15:21.697Z,4.20
2023-05-18T01:17:54.396Z,4.40
2023-05-18T01:20:38.424Z,4.70
2023-05-18T01:23:23.719Z,4.20
2023-05-18T01:25:53.456Z,4.30
2023-05-18T01:28:32.630Z,4.80
2023-05-18T01:30:59.571Z,4.80
2023-05-18T01:33:26.472Z,4.70
2023-05-18T01:35:53.072Z,5.60
2023-05-18T01:38:22.310Z,4.50
2023-05-18T01:41:17.125Z,4.70
2023-05-18T01:44:25.960Z,5.10
2023-05-18T01:47:19.576Z,4.80
2023-05-18T01:50:13.675Z,5.20
2023-05-18T01:52:57.595Z,4.30
2023-05-18T01:55:24.178Z,5.00
2023-05-18T01:57:50.989Z,4.30
2023-05-18T02:00:18.300Z,4.20
2023-05-18T02:02:46.955Z,4.20
2023-05-18T02:05:14.281Z,4.10
2023-05-18T02:07:43.523Z,4.70
2023-05-18T02:10:11.141Z,4.80
2023-05-18T02:12:38.664Z,4.20
2023-05-18T02:15:06.358Z,3.90
2023-05-18T02:17:33.714Z,4.70
2023-05-18T02:20:00.281Z,4.80
2023-05-18T02:22:26.904Z,4.40
2023-05-18T02:24:53.536Z,4.40
2023-05-18T02:27:20.159Z,5.60
2023-05-18T02:29:48.270Z,8.50
2023-05-18T02:32:14.899Z,14.40
2023-05-18T02:34:41.548Z,13.70
2023-05-18T02:37:08.206Z,11.10
2023-05-18T02:39:35.313Z,9.10
2023-05-18T02:42:01.877Z,8.30
2023-05-18T02:44:28.620Z,5.50
2023-05-18T02:46:55.296Z,5.10
2023-05-18T02:49:21.838Z,5.10
2023-05-18T02:51:48.541Z,4.90
2023-05-18T02:54:15.252Z,5.60
2023-05-18T02:56:42.699Z,4.40
2023-05-18T02:59:20.424Z,6.00
2023-05-18T03:01:47.437Z,5.10
2023-05-18T03:04:14.092Z,4.80
2023-05-18T03:06:46.731Z,4.70
2023-05-18T03:09:15.247Z,5.00
2023-05-18T03:11:42.399Z,4.60
2023-05-18T03:14:09.248Z,5.00
2023-05-18T03:16:38.277Z,4.50
2023-05-18T03:19:07.271Z,4.40
2023-05-18T03:21:36.902Z,4.80
2023-05-18T03:24:03.834Z,4.60
2023-05-18T03:26:31.435Z,5.30
2023-05-18T03:28:58.328Z,4.60
2023-05-18T03:31:25.502Z,4.90
2023-05-18T03:33:52.621Z,4.50
2023-05-18T03:36:21.856Z,4.80
2023-05-18T03:38:48.810Z,4.40
2023-05-18T03:41:15.748Z,4.60
2023-05-18T03:43:42.511Z,4.60
2023-05-18T03:46:09.176Z,3.90
2023-05-18T03:48:35.828Z,4.20
2023-05-18T03:51:02.718Z,3.80
2023-05-18T03:53:30.441Z,4.50
2023-05-18T03:55:57.039Z,4.00
2023-05-18T03:58:24.483Z,4.20
2023-05-18T04:00:52.132Z,4.10
2023-05-18T04:03:20.911Z,4.20
2023-05-18T04:05:49.110Z,4.80
2023-05-18T04:08:16.746Z,4.00
2023-05-18T04:10:43.922Z,4.10
2023-05-18T04:13:10.853Z,4.30
2023-05-18T04:15:37.989Z,4.40
2023-05-18T04:18:05.281Z,4.20
2023-05-18T04:20:31.996Z,4.30
2023-05-18T04:22:58.680Z,4.40
2023-05-18T04:25:27.367Z,4.50
2023-05-18T04:27:55.305Z,3.80
2023-05-18T04:30:23.302Z,4.70
2023-05-18T04:32:50.941Z,4.60
2023-05-18T04:35:17.966Z,4.20
2023-05-18T04:37:45.006Z,4.30
2023-05-18T04:40:16.610Z,4.20
2023-05-18T04:42:46.914Z,4.00
2023-05-18T04:45:19.822Z,4.30
2023-05-18T04:47:52.511Z,3.50
2023-05-18T04:50:19.629Z,3.70
2023-05-18T04:52:48.184Z,4.20
2023-05-18T04:55:22.336Z,4.20
2023-05-18T04:57:49.983Z,3.90
2023-05-18T05:00:17.566Z,4.00
2023-05-18T05:02:44.868Z,3.20
2023-05-18T05:05:11.804Z,4.10
2023-05-18T05:07:38.643Z,3.50
2023-05-18T05:10:06.907Z,3.70
2023-05-18T05:12:38.689Z,3.40
2023-05-18T05:15:06.952Z,3.30
2023-05-18T05:17:33.988Z,3.60
2023-05-18T05:20:00.559Z,3.70
2023-05-18T05:22:27.781Z,3.70
2023-05-18T05:24:54.658Z,3.60
2023-05-18T05:28:48.726Z,3.30
2023-05-18T05:31:15.730Z,3.50
2023-05-18T05:33:44.816Z,3.30
2023-05-18T05:36:11.853Z,3.60
2023-05-18T05:38:38.833Z,3.80
2023-05-18T05:41:06.094Z,3.50
2023-05-18T05:43:33.698Z,3.80
2023-05-18T05:46:01.052Z,3.40
2023-05-18T05:48:28.199Z,3.40
2023-05-18T05:50:55.005Z,3.30
2023-05-18T05:53:22.927Z,3.30
2023-05-18T05:55:49.827Z,3.40
2023-05-18T05:58:18.492Z,4.00
2023-05-18T06:00:50.196Z,3.50
2023-05-18T06:03:16.834Z,3.50
2023-05-18T06:05:45.810Z,3.90
2023-05-18T06:08:15.107Z,3.70
2023-05-18T06:10:42.363Z,4.00
2023-05-18T06:13:09.513Z,4.00
2023-05-18T06:15:42.245Z,3.90
2023-05-18T06:18:09.581Z,3.80
2023-05-18T06:20:38.268Z,3.60
2023-05-18T06:23:05.056Z,3.10
2023-05-18T06:25:52.613Z,3.50
2023-05-18T06:28:26.030Z,3.70
2023-05-18T06:31:18.482Z,4.00
2023-05-18T06:33:48.966Z,3.90
2023-05-18T06:36:16.070Z,3.90
2023-05-18T06:38:44.066Z,3.70
2023-05-18T06:41:10.857Z,3.90
2023-05-18T06:43:37.626Z,3.80
2023-05-18T06:46:23.816Z,4.00
2023-05-18T06:48:54.474Z,4.20
2023-05-18T06:51:21.095Z,4.00
2023-05-18T06:53:48.127Z,4.10
2023-05-18T06:56:16.149Z,4.00
2023-05-18T06:58:44.651Z,4.20
2023-05-18T07:01:11.534Z,3.90
2023-05-18T07:03:38.386Z,4.20
2023-05-18T07:06:06.404Z,3.60
2023-05-18T07:08:33.127Z,3.40
2023-05-18T07:11:01.856Z,2.90
2023-05-18T07:13:28.884Z,3.10
2023-05-18T07:15:55.649Z,3.10
2023-05-18T07:18:22.784Z,2.90
2023-05-18T07:20:49.371Z,2.90
2023-05-18T07:23:16.002Z,3.70
2023-05-18T07:25:42.535Z,3.80
2023-05-18T07:28:09.101Z,3.00
2023-05-18T07:30:35.770Z,3.50
2023-05-18T07:33:02.539Z,3.30
2023-05-18T07:35:29.658Z,3.60
2023-05-18T07:37:56.979Z,3.40
2023-05-18T07:40:23.562Z,3.20
2023-05-18T07:42:50.255Z,4.00
2023-05-18T07:45:17.209Z,3.40
2023-05-18T07:47:45.341Z,3.30
2023-05-18T07:50:11.898Z,3.30
2023-05-18T07:52:39.411Z,3.70
2023-05-18T07:55:06.466Z,3.60
2023-05-18T07:57:34.849Z,3.60
2023-05-18T08:00:04.349Z,3.70
2023-05-18T08:02:39.599Z,3.60
2023-05-18T08:05:07.823Z,3.90
2023-05-18T08:07:34.522Z,3.70
2023-05-18T08:10:01.218Z,4.00
2023-05-18T08:12:29.452Z,4.50
2023-05-18T08:14:56.583Z,4.10
2023-05-18T08:17:23.106Z,4.40
2023-05-18T08:31:02.531Z,3.70
2023-05-18T08:33:29.361Z,3.60
2023-05-18T08:35:56.334Z,4.20
2023-05-18T08:38:23.499Z,4.00
2023-05-18T08:41:03.227Z,3.50
2023-05-18T08:43:32.796Z,4.20
2023-05-18T08:46:07.013Z,4.00
2023-05-18T08:48:34.386Z,4.40
2023-05-18T08:51:02.178Z,3.80
2023-05-18T08:53:29.284Z,4.30
2023-05-18T08:55:56.585Z,4.30
2023-05-18T08:58:30.065Z,4.10
2023-05-18T09:00:57.561Z,4.30
2023-05-18T09:03:25.834Z,4.40
2023-05-18T09:05:53.011Z,4.20
2023-05-18T09:08:21.571Z,4.30
2023-05-18T09:10:48.684Z,3.70
2023-05-18T09:13:15.551Z,4.00
2023-05-18T09:15:42.251Z,4.20
2023-05-18T09:18:11.165Z,5.10
2023-05-18T09:20:38.074Z,4.70
2023-05-18T09:23:04.877Z,4.70
2023-05-18T09:25:32.415Z,4.50
2023-05-18T09:27:59.456Z,5.10
2023-05-18T09:30:26.122Z,5.10
2023-05-18T09:32:52.994Z,5.00
2023-05-18T09:35:19.770Z,4.70
2023-05-18T09:37:47.501Z,5.30
2023-05-18T09:40:16.035Z,5.20
2023-05-18T09:42:43.605Z,5.80
2023-05-18T09:45:23.208Z,6.30
2023-05-18T09:47:50.246Z,5.90
2023-05-18T09:50:21.032Z,5.80
2023-05-18T09:52:48.801Z,5.70
2023-05-18T09:55:16.033Z,6.00
2023-05-18T09:57:46.868Z,5.80
2023-05-18T10:00:13.972Z,5.10
2023-05-18T10:02:41.533Z,5.10
2023-05-18T10:05:21.789Z,5.30
2023-05-18T10:07:53.204Z,5.50
2023-05-18T10:10:22.616Z,5.00
2023-05-18T10:12:53.534Z,5.50
2023-05-18T10:15:21.179Z,5.70
2023-05-18T10:17:50.389Z,5.30
2023-05-18T10:20:22.290Z,5.20
2023-05-18T10:22:49.334Z,5.20
2023-05-18T10:25:19.388Z,5.40
2023-05-18T10:27:51.140Z,5.20
2023-05-18T10:30:17.944Z,4.80
2023-05-18T11:44:16.865Z,4.60
2023-05-18T11:47:01.837Z,4.60
2023-05-18T11:49:30.279Z,5.00
2023-05-18T11:52:22.968Z,4.60
2023-05-18T11:54:50.741Z,5.30
2023-05-18T11:57:18.944Z,4.70
2023-05-18T11:59:48.152Z,4.80
2023-05-18T12:02:25.574Z,5.30
2023-05-18T12:04:55.495Z,5.20
2023-05-18T12:07:22.677Z,5.40
2023-05-18T12:09:49.615Z,5.50
2023-05-18T12:12:20.965Z,4.60
2023-05-18T12:15:01.243Z,4.50
2023-05-18T12:17:47.751Z,4.70
2023-05-18T12:20:17.278Z,5.00
2023-05-18T12:22:53.146Z,4.40
2023-05-18T12:25:22.569Z,4.90
2023-05-18T12:27:54.216Z,4.60
2023-05-18T12:30:35.280Z,4.40
2023-05-18T12:33:04.057Z,5.00
2023-05-18T12:35:33.940Z,4.70
2023-05-18T12:38:02.235Z,4.80
2023-05-18T12:40:44.856Z,5.30
2023-05-18T12:43:13.790Z,4.60
2023-05-18T12:45:44.006Z,4.70
2023-05-18T12:48:12.053Z,4.50
2023-05-18T12:50:48.393Z,4.20
2023-05-18T12:53:16.102Z,4.60
2023-05-18T12:55:56.765Z,4.90
2023-05-18T12:58:23.800Z,5.20
2023-05-18T13:00:51.920Z,4.90
2023-05-18T13:03:22.908Z,4.80
2023-05-18T13:06:06.767Z,5.20
2023-05-18T13:08:34.858Z,4.70
2023-05-18T13:11:13.662Z,4.90
2023-05-18T13:14:01.951Z,4.80
2023-05-18T13:16:30.541Z,5.30
2023-05-18T13:18:59.818Z,5.30
2023-05-18T13:21:56.396Z,4.70
2023-05-18T13:24:24.581Z,5.00
2023-05-18T13:27:17.458Z,5.40
2023-05-18T13:29:46.897Z,5.10
2023-05-18T13:32:17.560Z,4.80
2023-05-18T13:34:44.852Z,5.40
2023-05-18T13:37:19.475Z,5.60
2023-05-18T13:39:52.432Z,6.00
2023-05-18T13:42:21.422Z,5.00
2023-05-18T13:44:49.509Z,5.00
2023-05-18T13:47:16.623Z,5.90
2023-05-18T13:49:43.590Z,4.90
2023-05-18T13:52:11.548Z,5.30
2023-05-18T13:54:42.168Z,4.60
2023-05-18T13:57:09.407Z,4.60
2023-05-18T13:59:36.429Z,5.30
2023-05-18T14:02:04.170Z,4.90
2023-05-18T14:04:32.184Z,4.80
2023-05-18T14:07:00.670Z,5.10
2023-05-18T14:09:30.162Z,4.70
2023-05-18T14:12:00.571Z,5.10
2023-05-18T14:14:30.084Z,5.20
2023-05-18T14:17:00.348Z,5.50
2023-05-18T14:19:28.673Z,5.20
2023-05-18T14:21:55.876Z,5.50
2023-05-18T14:24:23.876Z,5.40
2023-05-18T14:26:53.664Z,5.50
2023-05-18T14:29:20.765Z,5.70
2023-05-18T14:31:47.795Z,5.50
2023-05-18T14:34:14.811Z,5.70
2023-05-18T14:36:41.757Z,6.20
2023-05-18T14:39:08.725Z,5.50
2023-05-18T14:41:35.723Z,5.50
2023-05-18T14:44:04.724Z,5.50
2023-05-18T14:46:31.598Z,6.10
2023-05-18T14:48:58.522Z,5.90
2023-05-18T14:51:25.444Z,6.10
2023-05-18T14:53:52.478Z,6.40
2023-05-18T14:56:19.257Z,6.10
2023-05-18T14:58:46.100Z,5.60
2023-05-18T15:01:12.911Z,6.00
2023-05-18T15:03:39.856Z,5.60
2023-05-18T15:06:06.997Z,5.50
2023-05-18T15:08:34.998Z,7.90
2023-05-18T15:11:01.931Z,5.90
2023-05-18T15:13:28.747Z,5.60
2023-05-18T15:15:55.608Z,5.80
2023-05-18T15:18:23.664Z,5.50
2023-05-18T15:20:51.486Z,5.60
2023-05-18T15:23:18.388Z,5.60
2023-05-18T15:25:45.584Z,5.70
2023-05-18T15:28:13.828Z,5.40
2023-05-18T15:30:41.869Z,5.50
2023-05-18T15:33:10.339Z,5.60
2023-05-18T15:35:38.711Z,5.50
2023-05-18T15:38:05.691Z,5.60
2023-05-18T15:40:32.791Z,5.00
2023-05-18T15:42:59.819Z,5.60
2023-05-18T15:45:27.625Z,5.70
2023-05-18T15:47:54.537Z,5.10
2023-05-18T15:50:21.381Z,5.40
2023-05-18T15:52:48.214Z,5.40
2023-05-18T15:55:15.143Z,5.70
2023-05-18T15:57:42.081Z,5.50
2023-05-18T16:00:09.476Z,5.20
2023-05-18T16:02:39.296Z,5.80
2023-05-18T16:05:07.676Z,5.20
2023-05-18T16:07:35.445Z,5.30
2023-05-18T16:10:02.320Z,5.20
2023-05-18T16:12:30.198Z,5.60
2023-05-18T16:14:57.084Z,5.70
2023-05-18T16:17:25.048Z,5.40
2023-05-18T16:19:51.988Z,5.60
2023-05-18T16:22:18.837Z,5.70
2023-05-18T16:24:45.732Z,5.70
2023-05-18T16:27:12.955Z,5.50
2023-05-18T16:29:41.556Z,5.60
2023-05-18T16:32:08.455Z,5.70
2023-05-18T16:34:35.494Z,5.30
2023-05-18T16:37:02.348Z,5.80
2023-05-18T16:39:31.252Z,6.00
2023-05-18T16:41:58.017Z,5.70
2023-05-18T16:44:24.884Z,5.50
2023-05-18T16:46:51.855Z,5.70
2023-05-18T16:49:20.589Z,6.10
2023-05-18T16:51:47.425Z,5.70
2023-05-18T16:54:14.261Z,5.40
2023-05-18T16:56:41.107Z,5.50
2023-05-18T16:59:09.598Z,5.30
2023-05-18T17:01:36.601Z,5.30
2023-05-18T17:04:03.892Z,5.10
2023-05-18T17:06:31.164Z,5.60
2023-05-18T17:08:58.448Z,5.70
2023-05-18T17:11:27.188Z,5.30
2023-05-18T17:13:55.772Z,5.80
2023-05-18T17:16:23.559Z,5.40
2023-05-18T17:18:50.825Z,5.60
2023-05-18T17:21:17.692Z,5.90
2023-05-18T17:23:45.793Z,6.00
2023-05-18T17:26:12.611Z,5.20
2023-05-18T17:28:39.580Z,5.40
2023-05-18T17:31:07.703Z,5.90
2023-05-18T17:33:34.574Z,6.00
2023-05-18T17:36:01.430Z,5.90
2023-05-18T17:38:31.567Z,5.40
2023-05-18T17:40:59.447Z,5.70
2023-05-18T17:43:26.256Z,6.10
2023-05-18T17:45:54.077Z,5.90
2023-05-18T17:48:20.971Z,6.80
2023-05-18T17:50:47.887Z,6.30
2023-05-18T17:53:14.742Z,6.30
2023-05-18T17:55:41.775Z,6.70
2023-05-18T17:58:08.614Z,7.20
2023-05-18T18:00:35.441Z,6.40
2023-05-18T18:03:02.387Z,7.00
2023-05-18T18:05:29.406Z,7.40
2023-05-18T18:07:58.280Z,7.00
2023-05-18T18:10:25.100Z,7.40
2023-05-18T18:12:51.898Z,7.40
2023-05-18T18:15:18.856Z,7.40
2023-05-18T18:17:45.903Z,6.90
2023-05-18T18:20:12.782Z,6.70
2023-05-18T18:22:39.621Z,7.30
2023-05-18T18:25:06.707Z,7.40
2023-05-18T18:27:33.528Z,7.20
2023-05-18T18:30:00.411Z,7.40
2023-05-18T18:32:29.280Z,7.20
2023-05-18T18:34:57.226Z,6.70
2023-05-18T18:37:24.156Z,6.40
2023-05-18T18:39:51.238Z,7.00
2023-05-18T18:42:21.275Z,7.10
2023-05-18T18:44:48.584Z,7.20
2023-05-18T18:47:15.403Z,8.50
2023-05-18T18:49:42.196Z,7.70
2023-05-18T18:52:10.288Z,7.60
2023-05-18T18:54:38.365Z,6.90
2023-05-18T18:57:05.552Z,7.60
2023-05-18T18:59:32.424Z,7.00
2023-05-18T19:01:59.444Z,6.70
2023-05-18T19:04:27.538Z,6.40
2023-05-18T19:06:55.206Z,6.40
2023-05-18T19:09:22.858Z,6.90
2023-05-18T19:11:50.663Z,6.40
2023-05-18T19:14:17.550Z,6.70
2023-05-18T19:16:44.422Z,6.40
2023-05-18T19:19:11.492Z,6.40
2023-05-18T19:21:38.503Z,6.40
2023-05-18T19:24:07.545Z,7.40
2023-05-18T19:26:34.614Z,7.80
2023-05-18T19:29:01.441Z,8.20
2023-05-18T19:31:31.672Z,8.90
2023-05-18T19:34:01.580Z,9.70
2023-05-18T19:36:28.476Z,9.50
2023-05-18T19:38:55.980Z,9.20
2023-05-18T19:41:24.638Z,9.20
2023-05-18T19:43:51.920Z,9.20
2023-05-18T19:46:19.171Z,9.70
2023-05-18T19:48:48.378Z,10.00
2023-05-18T19:51:15.462Z,9.50
2023-05-18T19:53:43.473Z,9.80
2023-05-18T19:56:11.198Z,10.10
2023-05-18T19:58:38.021Z,10.00
2023-05-18T20:01:05.987Z,10.20
2023-05-18T20:03:33.523Z,9.90
2023-05-18T20:06:01.401Z,9.50
2023-05-18T20:08:28.201Z,10.00
2023-05-18T20:10:55.124Z,10.50
2023-05-18T20:13:23.035Z,9.90
2023-05-18T20:15:50.396Z,10.20
2023-05-18T20:18:17.282Z,9.70
2023-05-18T20:20:44.141Z,10.40
2023-05-18T20:23:11.919Z,10.60
2023-05-18T20:25:38.791Z,9.30
2023-05-18T20:28:08.616Z,10.20
2023-05-18T20:30:35.495Z,11.10
2023-05-18T20:33:04.803Z,9.70
2023-05-18T20:37:59.817Z,10.80
2023-05-18T20:40:27.732Z,11.10
2023-05-18T20:42:54.532Z,11.90
2023-05-18T20:45:22.446Z,10.50
2023-05-18T20:47:52.226Z,11.20
2023-05-18T20:50:19.466Z,11.30
2023-05-18T20:52:46.533Z,10.80
2023-05-18T20:55:14.814Z,10.40
2023-05-18T20:57:44.718Z,11.80
2023-05-18T21:00:12.947Z,10.40
2023-05-18T21:02:45.185Z,10.50
2023-05-18T21:05:12.439Z,10.70
2023-05-18T21:07:40.407Z,10.50
2023-05-18T21:10:08.375Z,10.80
2023-05-18T21:12:35.148Z,10.90
2023-05-18T21:15:02.121Z,10.00
2023-05-18T21:17:31.435Z,10.20
2023-05-18T21:20:00.176Z,10.70
2023-05-18T21:22:27.223Z,10.20
2023-05-18T21:24:54.130Z,10.50
2023-05-18T21:27:21.263Z,10.20
2023-05-18T21:29:48.102Z,9.70
2023-05-18T21:32:15.208Z,9.40
2023-05-18T21:34:43.678Z,10.00
2023-05-18T21:37:10.991Z,9.80
2023-05-18T21:39:37.910Z,10.30
2023-05-18T21:42:04.906Z,9.80
2023-05-18T21:44:32.399Z,10.20
2023-05-18T21:46:59.233Z,10.80
2023-05-18T21:49:26.162Z,10.70
2023-05-18T21:51:52.972Z,11.00
2023-05-18T21:54:19.820Z,10.80
2023-05-18T21:56:46.617Z,11.80
2023-05-18T21:59:13.448Z,12.30
2023-05-18T22:01:40.263Z,12.20
2023-05-18T22:04:07.071Z,11.70
2023-05-18T22:06:33.866Z,11.60
2023-05-18T22:09:00.683Z,11.90
2023-05-18T22:11:27.497Z,11.90
2023-05-18T22:13:54.368Z,12.80
2023-05-18T22:16:21.749Z,12.40
2023-05-18T22:18:49.679Z,13.10
2023-05-18T22:21:16.585Z,12.60
2023-05-18T22:23:43.520Z,13.20
2023-05-18T22:26:12.263Z,12.80
2023-05-18T22:28:39.099Z,14.00
2023-05-18T22:31:06.772Z,15.00
2023-05-18T22:33:33.617Z,14.50
2023-05-18T22:36:00.583Z,15.00
2023-05-18T22:38:27.950Z,16.90
2023-05-18T22:40:54.723Z,15.60
2023-05-18T22:43:21.949Z,17.90
2023-05-18T22:45:49.036Z,17.20
2023-05-18T22:48:16.946Z,19.70
2023-05-18T22:50:43.892Z,19.30
2023-05-18T22:53:15.202Z,20.40
2023-05-18T22:55:42.132Z,22.70
2023-05-18T22:58:08.894Z,24.60
2023-05-18T23:00:35.742Z,23.70
2023-05-18T23:03:02.633Z,23.50
2023-05-18T23:05:29.742Z,21.80
2023-05-18T23:07:58.255Z,23.20
2023-05-18T23:10:26.558Z,22.50
2023-05-18T23:12:55.789Z,22.10
2023-05-18T23:15:23.130Z,22.30
2023-05-18T23:17:50.306Z,23.20
2023-05-18T23:20:17.270Z,21.90
2023-05-18T23:22:44.517Z,21.30
2023-05-18T23:25:11.426Z,22.30
2023-05-18T23:27:41.350Z,20.60
2023-05-18T23:30:08.608Z,22.40
2023-05-18T23:32:36.400Z,18.80
2023-05-18T23:35:04.870Z,19.30
2023-05-18T23:37:33.032Z,20.30
2023-05-18T23:40:02.032Z,19.10
2023-05-18T23:42:30.241Z,20.80
2023-05-18T23:44:57.394Z,20.70
2023-05-18T23:47:24.490Z,20.30
2023-05-18T23:49:51.598Z,18.80
2023-05-18T23:52:18.440Z,17.70
2023-05-18T23:54:47.240Z,19.20
2023-05-18T23:57:14.316Z,18.90
2023-05-18T23:59:42.068Z,17.20
